»·PEaware :: N52EF KTEX-KTRM

N52EF :: KTEX-KTRM

FLIGHT INFORMATION

Flight Status: Arrived
Operator: Privately registered:
United States
More flights under this callsign
Pilot: Ethan S. (29221)
Aircraft: CANADAIR CL-600 CHALLENGER
(CL60)
More flights by this aircraft type
Origin: KTEX Telluride Regl
United States
Destination: KTRM Desert Resorts Regl
United States
More flights between these airports :: More routes between these airports
Route: ETL DVC TBC J236 EED SBONO1
File this flight plan on PilotEdge
Remarks:
Altitude:
(Current/Filed)
38,000ft
Speed:
(Current/Filed)
465kts
Departed: 09-May-23 10:24 AM
Arrived: 09-May-23 11:45 AM
Distance/Time
Traveled:
477nm/1:20
Distance/Time
To Go:
Arrived

Flight Plot

Page will automatically refresh every two minutes.

Flight plan parsing failed; only flown route is shown


Map Options




Map Legend


Flown Route
Filed Route
Departure Airport
Arrival Airport
Navaid (VOR, NDB)
Fix

Horizontal Profiles

Position Reports

Time Latitude Longitude Heading Altitude Ground
Speed
09-May-23 10:03 37.954056 -107.902101 104 9064ft 0kts
09-May-23 10:04 37.954056 -107.902101 104 9064ft 0kts
09-May-23 10:05 37.954056 -107.902101 104 9064ft 0kts
09-May-23 10:06 37.954056 -107.902101 104 9064ft 0kts
09-May-23 10:07 37.954056 -107.902101 104 9064ft 0kts
09-May-23 10:08 37.954056 -107.902101 104 9064ft 0kts
09-May-23 10:09 37.954056 -107.902101 104 9064ft 0kts
09-May-23 10:10 37.954056 -107.902101 104 9064ft 0kts
09-May-23 10:11 37.954056 -107.902101 104 9064ft 0kts
09-May-23 10:12 37.954056 -107.902101 104 9064ft 0kts
09-May-23 10:13 37.954056 -107.902101 104 9064ft 0kts
09-May-23 10:14 37.954056 -107.902101 104 9064ft 0kts
09-May-23 10:15 37.954056 -107.902101 104 9064ft 0kts
09-May-23 10:16 37.954056 -107.902101 104 9064ft 0kts
09-May-23 10:17 37.954056 -107.902101 104 9064ft 0kts
09-May-23 10:18 37.954056 -107.902101 104 9064ft 0kts
09-May-23 10:19 37.954056 -107.902101 104 9064ft 0kts
09-May-23 10:20 37.953202 -107.900443 105 9072ft 11kts
09-May-23 10:21 37.953010 -107.898637 146 9081ft 7kts
09-May-23 10:22 37.952038 -107.896695 187 9088ft 10kts
09-May-23 10:23 37.955459 -107.916305 280 9205ft 173kts
09-May-23 10:24 37.973450 -107.990203 285 11932ft 245kts
09-May-23 10:25 37.995562 -108.076531 283 15075ft 290kts
09-May-23 10:26 38.021434 -108.181699 283 18623ft 341kts
09-May-23 10:27 38.024094 -108.299319 240 22176ft 348kts
09-May-23 10:28 37.969856 -108.404232 233 25278ft 365kts
09-May-23 10:29 37.907943 -108.507397 231 28208ft 374kts
09-May-23 10:30 37.842571 -108.613245 231 30387ft 388kts
09-May-23 10:31 37.775543 -108.720934 229 32656ft 389kts
09-May-23 10:32 37.709697 -108.826321 229 34907ft 380kts
09-May-23 10:33 37.643886 -108.931200 229 36473ft 383kts
09-May-23 10:34 37.577736 -109.036278 229 37903ft 382kts
09-May-23 10:35 37.509470 -109.144319 229 38026ft 407kts
09-May-23 10:36 37.437127 -109.258472 230 38031ft 424kts
09-May-23 10:37 37.363519 -109.374279 230 38047ft 424kts
09-May-23 10:38 37.289849 -109.489728 229 38046ft 424kts
09-May-23 10:39 37.216198 -109.604771 230 37984ft 423kts
09-May-23 10:40 37.142399 -109.719571 229 38001ft 422kts
09-May-23 10:41 37.068571 -109.834079 229 38002ft 423kts
09-May-23 10:42 36.994657 -109.948338 229 37914ft 423kts
09-May-23 10:43 36.920512 -110.062542 229 37926ft 422kts
09-May-23 10:44 36.846610 -110.175987 229 37924ft 422kts
09-May-23 10:45 36.772377 -110.289526 229 37940ft 422kts
09-May-23 10:46 36.698013 -110.402882 229 37940ft 422kts
09-May-23 10:47 36.623693 -110.515816 229 37929ft 422kts
09-May-23 10:48 36.549357 -110.628389 229 37928ft 422kts
09-May-23 10:49 36.474732 -110.741016 229 37924ft 423kts
09-May-23 10:50 36.399839 -110.853665 229 37998ft 423kts
09-May-23 10:51 36.324775 -110.966239 229 37973ft 423kts
09-May-23 10:52 36.249781 -111.078311 229 37955ft 423kts
09-May-23 10:53 36.174770 -111.189994 229 37904ft 421kts
09-May-23 10:54 36.105836 -111.307594 238 37967ft 423kts
09-May-23 10:55 36.052927 -111.437395 241 37965ft 425kts
09-May-23 10:56 36.000259 -111.567796 241 38038ft 423kts
09-May-23 10:57 35.947616 -111.697342 241 38047ft 422kts
09-May-23 10:58 35.894945 -111.826403 240 38045ft 421kts
09-May-23 10:59 35.842178 -111.955022 240 38027ft 419kts
09-May-23 11:00 35.789516 -112.082886 240 38037ft 419kts
09-May-23 11:01 35.736661 -112.210598 240 38052ft 419kts
09-May-23 11:02 35.683676 -112.338216 240 38097ft 420kts
09-May-23 11:03 35.630315 -112.466218 240 38095ft 420kts
09-May-23 11:04 35.577063 -112.593436 240 38083ft 421kts
09-May-23 11:05 35.523520 -112.720872 240 38013ft 420kts
09-May-23 11:06 35.469787 -112.848316 240 38143ft 422kts
09-May-23 11:07 35.415834 -112.975748 240 38131ft 421kts
09-May-23 11:08 35.361927 -113.102598 240 38146ft 422kts
09-May-23 11:09 35.307601 -113.229968 240 38134ft 422kts
09-May-23 11:10 35.253360 -113.356639 240 38115ft 421kts
09-May-23 11:11 35.198708 -113.483764 240 38096ft 422kts
09-May-23 11:13 35.144044 -113.610492 240 38075ft 422kts
09-May-23 11:14 35.088621 -113.738512 240 38094ft 423kts
09-May-23 11:15 35.033239 -113.865925 240 38056ft 422kts
09-May-23 11:16 34.978041 -113.992421 240 38065ft 422kts
09-May-23 11:17 34.922738 -114.118707 240 38076ft 422kts
09-May-23 11:18 34.867139 -114.245226 240 38053ft 421kts
09-May-23 11:19 34.812807 -114.368377 240 36791ft 400kts
09-May-23 11:20 34.760396 -114.484623 235 34700ft 383kts
09-May-23 11:21 34.693801 -114.585661 231 32563ft 381kts
09-May-23 11:22 34.626144 -114.686567 230 30625ft 387kts
09-May-23 11:23 34.559098 -114.786946 230 29705ft 380kts
09-May-23 11:24 34.491291 -114.888676 230 29724ft 386kts
09-May-23 11:25 34.423147 -114.990706 230 29472ft 390kts
09-May-23 11:26 34.356255 -115.090614 230 27588ft 373kts
09-May-23 11:27 34.291744 -115.186699 230 25703ft 363kts
09-May-23 11:28 34.228737 -115.280294 230 23904ft 354kts
09-May-23 11:29 34.167219 -115.371461 229 22110ft 345kts
09-May-23 11:30 34.107022 -115.460422 229 20329ft 339kts
09-May-23 11:31 34.047884 -115.547590 229 18586ft 332kts
09-May-23 11:32 33.989872 -115.632899 229 16912ft 328kts
09-May-23 11:33 33.932566 -115.716996 229 15192ft 322kts
09-May-23 11:34 33.910063 -115.819406 262 13420ft 326kts
09-May-23 11:35 33.902269 -115.924273 250 11665ft 300kts
09-May-23 11:36 33.845105 -115.992077 215 9637ft 288kts
09-May-23 11:37 33.781274 -116.042264 208 8213ft 255kts
09-May-23 11:37 33.722687 -116.047517 182 6950ft 254kts
09-May-23 11:38 33.651753 -116.048253 181 5412ft 250kts
09-May-23 11:40 33.582081 -116.048409 186 5251ft 192kts
09-May-23 11:41 33.565212 -116.096094 272 3679ft 168kts
09-May-23 11:42 33.567777 -116.148672 299 1314ft 149kts
09-May-23 11:42 33.596073 -116.156546 0 324ft 125kts
09-May-23 11:43 33.627261 -116.156407 0 -118ft 54kts
09-May-23 11:45 33.632034 -116.157727 359 -114ft 17kts
09-May-23 11:46 33.638340 -116.157719 0 -107ft 15kts
09-May-23 11:46 33.639440 -116.158720 269 -106ft 0kts
09-May-23 11:47 33.639440 -116.158720 269 -106ft 0kts
09-May-23 11:48 33.639440 -116.158720 269 -106ft 0kts
09-May-23 11:49 33.639440 -116.158720 269 -106ft 0kts

Navigation Log

Ident Type
Flight plan parsing failed, navigation log unavailable